sensor_id;sensor_type;location;lat;lon;timestamp;temperature;humidity
336;DHT22;156;48.738;9.228;2023-02-04T00:01:13;7.10;55.50
336;DHT22;156;48.738;9.228;2023-02-04T00:03:41;7.00;62.20
336;DHT22;156;48.738;9.228;2023-02-04T00:06:08;7.00;74.80
336;DHT22;156;48.738;9.228;2023-02-04T00:08:35;7.00;81.70
336;DHT22;156;48.738;9.228;2023-02-04T00:11:03;6.90;89.80
336;DHT22;156;48.738;9.228;2023-02-04T00:13:30;6.90;92.50
336;DHT22;156;48.738;9.228;2023-02-04T00:15:57;6.90;95.80
336;DHT22;156;48.738;9.228;2023-02-04T00:18:24;7.30;98.10
336;DHT22;156;48.738;9.228;2023-02-04T00:20:52;6.80;97.60
336;DHT22;156;48.738;9.228;2023-02-04T00:23:19;6.80;98.40
336;DHT22;156;48.738;9.228;2023-02-04T00:25:45;6.80;98.90
336;DHT22;156;48.738;9.228;2023-02-04T00:28:12;6.90;98.40
336;DHT22;156;48.738;9.228;2023-02-04T00:30:39;6.80;98.40
336;DHT22;156;48.738;9.228;2023-02-04T00:33:06;6.80;98.20
336;DHT22;156;48.738;9.228;2023-02-04T00:35:33;6.90;84.60
336;DHT22;156;48.738;9.228;2023-02-04T00:38:03;6.90;83.60
336;DHT22;156;48.738;9.228;2023-02-04T00:40:30;6.90;78.20
336;DHT22;156;48.738;9.228;2023-02-04T00:42:57;6.90;70.20
336;DHT22;156;48.738;9.228;2023-02-04T00:45:24;7.00;55.00
336;DHT22;156;48.738;9.228;2023-02-04T00:47:51;7.10;50.30
336;DHT22;156;48.738;9.228;2023-02-04T00:50:18;7.10;46.40
336;DHT22;156;48.738;9.228;2023-02-04T00:52:45;7.10;46.90
336;DHT22;156;48.738;9.228;2023-02-04T00:55:13;7.10;37.90
336;DHT22;156;48.738;9.228;2023-02-04T00:57:42;7.10;41.40
336;DHT22;156;48.738;9.228;2023-02-04T01:00:12;7.10;41.20
336;DHT22;156;48.738;9.228;2023-02-04T01:02:39;7.10;46.70
336;DHT22;156;48.738;9.228;2023-02-04T01:05:07;7.00;56.30
336;DHT22;156;48.738;9.228;2023-02-04T01:07:34;6.90;72.10
336;DHT22;156;48.738;9.228;2023-02-04T01:10:01;6.80;82.60
336;DHT22;156;48.738;9.228;2023-02-04T01:12:29;6.80;92.00
336;DHT22;156;48.738;9.228;2023-02-04T01:14:56;6.70;98.00
336;DHT22;156;48.738;9.228;2023-02-04T01:17:23;6.70;99.90
336;DHT22;156;48.738;9.228;2023-02-04T01:19:50;6.70;99.90
336;DHT22;156;48.738;9.228;2023-02-04T01:22:17;6.60;99.90
336;DHT22;156;48.738;9.228;2023-02-04T01:24:44;6.50;99.90
336;DHT22;156;48.738;9.228;2023-02-04T01:27:10;6.50;99.90
336;DHT22;156;48.738;9.228;2023-02-04T01:29:39;6.50;99.90
336;DHT22;156;48.738;9.228;2023-02-04T01:32:05;6.50;99.90
336;DHT22;156;48.738;9.228;2023-02-04T01:34:32;6.50;99.90
336;DHT22;156;48.738;9.228;2023-02-04T01:36:59;6.50;99.90
336;DHT22;156;48.738;9.228;2023-02-04T01:39:26;6.50;99.90
336;DHT22;156;48.738;9.228;2023-02-04T01:41:53;6.50;99.90
336;DHT22;156;48.738;9.228;2023-02-04T01:44:20;6.40;99.90
336;DHT22;156;48.738;9.228;2023-02-04T01:46:48;6.40;99.90
336;DHT22;156;48.738;9.228;2023-02-04T01:49:15;6.40;99.90
336;DHT22;156;48.738;9.228;2023-02-04T01:51:42;6.40;99.90
336;DHT22;156;48.738;9.228;2023-02-04T01:54:11;6.30;99.90
336;DHT22;156;48.738;9.228;2023-02-04T01:56:39;6.30;98.10
336;DHT22;156;48.738;9.228;2023-02-04T01:59:10;6.30;94.40
336;DHT22;156;48.738;9.228;2023-02-04T02:01:39;6.30;95.40
336;DHT22;156;48.738;9.228;2023-02-04T02:04:09;6.20;92.10
336;DHT22;156;48.738;9.228;2023-02-04T02:06:38;6.30;88.80
336;DHT22;156;48.738;9.228;2023-02-04T02:09:07;6.20;84.40
336;DHT22;156;48.738;9.228;2023-02-04T02:11:34;6.20;57.40
336;DHT22;156;48.738;9.228;2023-02-04T02:14:02;6.20;51.40
336;DHT22;156;48.738;9.228;2023-02-04T02:16:29;6.20;51.30
336;DHT22;156;48.738;9.228;2023-02-04T02:18:56;6.20;51.40
336;DHT22;156;48.738;9.228;2023-02-04T02:21:31;6.10;46.80
336;DHT22;156;48.738;9.228;2023-02-04T02:24:23;6.00;45.50
336;DHT22;156;48.738;9.228;2023-02-04T02:26:51;6.00;52.00
336;DHT22;156;48.738;9.228;2023-02-04T02:29:18;6.00;60.20
336;DHT22;156;48.738;9.228;2023-02-04T02:31:45;6.00;69.50
336;DHT22;156;48.738;9.228;2023-02-04T02:34:12;5.90;78.10
336;DHT22;156;48.738;9.228;2023-02-04T02:36:40;5.80;84.60
336;DHT22;156;48.738;9.228;2023-02-04T02:39:08;5.80;85.50
336;DHT22;156;48.738;9.228;2023-02-04T02:41:35;5.70;91.10
336;DHT22;156;48.738;9.228;2023-02-04T02:44:02;5.70;93.50
336;DHT22;156;48.738;9.228;2023-02-04T02:46:29;5.60;95.40
336;DHT22;156;48.738;9.228;2023-02-04T02:48:56;5.70;95.20
336;DHT22;156;48.738;9.228;2023-02-04T02:51:23;5.60;95.40
336;DHT22;156;48.738;9.228;2023-02-04T02:53:50;5.60;93.90
336;DHT22;156;48.738;9.228;2023-02-04T02:56:19;5.60;96.40
336;DHT22;156;48.738;9.228;2023-02-04T02:58:46;5.50;97.40
336;DHT22;156;48.738;9.228;2023-02-04T03:01:13;5.50;99.90
336;DHT22;156;48.738;9.228;2023-02-04T03:03:43;5.50;99.90
336;DHT22;156;48.738;9.228;2023-02-04T03:06:13;5.50;99.90
336;DHT22;156;48.738;9.228;2023-02-04T03:08:42;5.40;99.90
336;DHT22;156;48.738;9.228;2023-02-04T03:11:09;5.40;99.90
336;DHT22;156;48.738;9.228;2023-02-04T03:13:38;5.40;99.90
336;DHT22;156;48.738;9.228;2023-02-04T03:16:06;5.40;99.90
336;DHT22;156;48.738;9.228;2023-02-04T03:18:35;5.40;99.90
336;DHT22;156;48.738;9.228;2023-02-04T03:21:03;5.40;99.90
336;DHT22;156;48.738;9.228;2023-02-04T03:23:31;5.40;99.90
336;DHT22;156;48.738;9.228;2023-02-04T03:25:59;5.40;99.90
336;DHT22;156;48.738;9.228;2023-02-04T03:28:26;5.40;99.90
336;DHT22;156;48.738;9.228;2023-02-04T03:30:54;5.50;99.90
336;DHT22;156;48.738;9.228;2023-02-04T03:33:22;5.40;99.90
336;DHT22;156;48.738;9.228;2023-02-04T03:35:50;5.40;99.90
336;DHT22;156;48.738;9.228;2023-02-04T03:38:17;5.40;99.90
336;DHT22;156;48.738;9.228;2023-02-04T03:40:45;5.40;99.90
336;DHT22;156;48.738;9.228;2023-02-04T03:43:11;5.40;99.90
336;DHT22;156;48.738;9.228;2023-02-04T03:45:39;5.40;99.90
336;DHT22;156;48.738;9.228;2023-02-04T03:48:07;5.40;99.90
336;DHT22;156;48.738;9.228;2023-02-04T03:50:34;5.40;99.90
336;DHT22;156;48.738;9.228;2023-02-04T03:53:01;5.50;99.90
336;DHT22;156;48.738;9.228;2023-02-04T03:55:28;5.40;99.90
336;DHT22;156;48.738;9.228;2023-02-04T03:57:56;5.40;99.90
336;DHT22;156;48.738;9.228;2023-02-04T04:00:23;5.40;99.90
336;DHT22;156;48.738;9.228;2023-02-04T04:02:50;5.40;99.90
336;DHT22;156;48.738;9.228;2023-02-04T04:05:18;5.40;99.90
336;DHT22;156;48.738;9.228;2023-02-04T04:07:45;5.40;99.90
336;DHT22;156;48.738;9.228;2023-02-04T04:10:12;5.40;99.90
336;DHT22;156;48.738;9.228;2023-02-04T04:12:39;5.30;99.90
336;DHT22;156;48.738;9.228;2023-02-04T04:15:06;5.30;99.90
336;DHT22;156;48.738;9.228;2023-02-04T04:17:33;5.30;99.90
336;DHT22;156;48.738;9.228;2023-02-04T04:20:00;5.30;99.90
336;DHT22;156;48.738;9.228;2023-02-04T04:22:29;5.30;99.90
336;DHT22;156;48.738;9.228;2023-02-04T04:24:55;5.30;99.90
336;DHT22;156;48.738;9.228;2023-02-04T04:27:23;5.40;99.90
336;DHT22;156;48.738;9.228;2023-02-04T04:29:50;5.40;99.90
336;DHT22;156;48.738;9.228;2023-02-04T04:32:17;5.40;99.90
336;DHT22;156;48.738;9.228;2023-02-04T04:34:44;5.30;99.90
336;DHT22;156;48.738;9.228;2023-02-04T04:37:11;5.30;99.90
336;DHT22;156;48.738;9.228;2023-02-04T04:39:39;5.30;99.90
336;DHT22;156;48.738;9.228;2023-02-04T04:42:06;5.30;99.90
336;DHT22;156;48.738;9.228;2023-02-04T04:44:33;5.30;99.90
336;DHT22;156;48.738;9.228;2023-02-04T04:47:00;5.40;99.90
336;DHT22;156;48.738;9.228;2023-02-04T04:49:27;5.30;99.90
336;DHT22;156;48.738;9.228;2023-02-04T04:51:54;5.30;99.90
336;DHT22;156;48.738;9.228;2023-02-04T04:54:21;5.30;99.90
336;DHT22;156;48.738;9.228;2023-02-04T04:56:49;5.30;99.90
336;DHT22;156;48.738;9.228;2023-02-04T04:59:16;5.40;99.90
336;DHT22;156;48.738;9.228;2023-02-04T05:01:43;5.40;99.90
336;DHT22;156;48.738;9.228;2023-02-04T05:04:10;5.40;99.90
336;DHT22;156;48.738;9.228;2023-02-04T05:06:37;5.30;99.90
336;DHT22;156;48.738;9.228;2023-02-04T05:09:03;5.40;99.90
336;DHT22;156;48.738;9.228;2023-02-04T05:11:30;5.30;99.90
336;DHT22;156;48.738;9.228;2023-02-04T05:13:59;5.30;99.90
336;DHT22;156;48.738;9.228;2023-02-04T05:16:26;5.30;99.90
336;DHT22;156;48.738;9.228;2023-02-04T05:18:53;5.20;99.90
336;DHT22;156;48.738;9.228;2023-02-04T05:21:19;5.20;99.90
336;DHT22;156;48.738;9.228;2023-02-04T05:23:46;5.30;99.90
336;DHT22;156;48.738;9.228;2023-02-04T05:26:13;5.20;99.90
336;DHT22;156;48.738;9.228;2023-02-04T05:28:40;5.30;99.90
336;DHT22;156;48.738;9.228;2023-02-04T05:31:08;5.20;99.90
336;DHT22;156;48.738;9.228;2023-02-04T05:33:35;5.20;99.90
336;DHT22;156;48.738;9.228;2023-02-04T05:36:02;5.20;99.90
336;DHT22;156;48.738;9.228;2023-02-04T05:38:29;5.20;99.90
336;DHT22;156;48.738;9.228;2023-02-04T05:40:59;5.90;99.90
336;DHT22;156;48.738;9.228;2023-02-04T05:43:28;5.10;99.90
336;DHT22;156;48.738;9.228;2023-02-04T05:45:55;7.10;99.90
336;DHT22;156;48.738;9.228;2023-02-04T05:48:23;5.20;99.90
336;DHT22;156;48.738;9.228;2023-02-04T05:50:52;5.10;99.90
336;DHT22;156;48.738;9.228;2023-02-04T05:53:21;5.10;99.90
336;DHT22;156;48.738;9.228;2023-02-04T05:55:51;4.80;99.90
336;DHT22;156;48.738;9.228;2023-02-04T05:58:28;5.40;99.90
336;DHT22;156;48.738;9.228;2023-02-04T06:01:00;6.90;99.90
336;DHT22;156;48.738;9.228;2023-02-04T06:03:33;5.50;99.90
336;DHT22;156;48.738;9.228;2023-02-04T06:06:39;6.10;99.90
336;DHT22;156;48.738;9.228;2023-02-04T06:09:14;5.40;99.90
336;DHT22;156;48.738;9.228;2023-02-04T06:11:44;4.00;99.90
336;DHT22;156;48.738;9.228;2023-02-04T06:14:16;5.90;99.90
336;DHT22;156;48.738;9.228;2023-02-04T06:16:53;5.30;99.90
336;DHT22;156;48.738;9.228;2023-02-04T06:19:26;6.50;99.90
336;DHT22;156;48.738;9.228;2023-02-04T06:21:58;5.00;99.90
336;DHT22;156;48.738;9.228;2023-02-04T06:24:33;4.90;99.90
336;DHT22;156;48.738;9.228;2023-02-04T06:27:07;5.10;99.90
336;DHT22;156;48.738;9.228;2023-02-04T06:29:35;5.00;99.90
336;DHT22;156;48.738;9.228;2023-02-04T06:32:05;6.40;99.90
336;DHT22;156;48.738;9.228;2023-02-04T06:34:47;5.20;99.90
336;DHT22;156;48.738;9.228;2023-02-04T06:37:32;5.40;99.90
336;DHT22;156;48.738;9.228;2023-02-04T06:40:02;6.40;99.90
336;DHT22;156;48.738;9.228;2023-02-04T06:42:47;5.10;99.90
336;DHT22;156;48.738;9.228;2023-02-04T06:45:16;5.30;99.90
336;DHT22;156;48.738;9.228;2023-02-04T06:47:46;5.00;99.90
336;DHT22;156;48.738;9.228;2023-02-04T06:50:20;6.20;99.90
336;DHT22;156;48.738;9.228;2023-02-04T06:52:52;7.20;99.90
336;DHT22;156;48.738;9.228;2023-02-04T06:55:19;5.10;99.90
336;DHT22;156;48.738;9.228;2023-02-04T06:58:12;6.40;99.90
336;DHT22;156;48.738;9.228;2023-02-04T07:00:49;5.00;99.90
336;DHT22;156;48.738;9.228;2023-02-04T07:03:23;4.10;99.90
336;DHT22;156;48.738;9.228;2023-02-04T07:06:20;6.50;99.90
336;DHT22;156;48.738;9.228;2023-02-04T07:09:12;5.80;99.90
336;DHT22;156;48.738;9.228;2023-02-04T07:11:52;5.00;99.90
336;DHT22;156;48.738;9.228;2023-02-04T07:14:22;5.10;99.90
336;DHT22;156;48.738;9.228;2023-02-04T07:16:54;6.00;99.90
336;DHT22;156;48.738;9.228;2023-02-04T07:19:39;6.00;99.90
336;DHT22;156;48.738;9.228;2023-02-04T07:22:11;5.40;99.90
336;DHT22;156;48.738;9.228;2023-02-04T07:24:43;4.90;99.90
336;DHT22;156;48.738;9.228;2023-02-04T07:27:14;4.80;99.90
336;DHT22;156;48.738;9.228;2023-02-04T07:29:46;5.30;99.90
336;DHT22;156;48.738;9.228;2023-02-04T07:32:21;6.50;99.90
336;DHT22;156;48.738;9.228;2023-02-04T07:34:54;6.20;99.90
336;DHT22;156;48.738;9.228;2023-02-04T07:37:27;5.00;99.90
336;DHT22;156;48.738;9.228;2023-02-04T07:40:08;5.90;99.90
336;DHT22;156;48.738;9.228;2023-02-04T07:42:40;5.10;99.90
336;DHT22;156;48.738;9.228;2023-02-04T07:45:10;5.00;99.90
336;DHT22;156;48.738;9.228;2023-02-04T07:47:51;5.50;99.90
336;DHT22;156;48.738;9.228;2023-02-04T07:50:30;5.20;99.90
336;DHT22;156;48.738;9.228;2023-02-04T07:53:03;5.00;99.90
336;DHT22;156;48.738;9.228;2023-02-04T07:56:11;5.10;99.90
336;DHT22;156;48.738;9.228;2023-02-04T07:58:41;5.30;99.90
336;DHT22;156;48.738;9.228;2023-02-04T08:01:08;5.40;99.90
336;DHT22;156;48.738;9.228;2023-02-04T08:03:38;5.60;99.90
336;DHT22;156;48.738;9.228;2023-02-04T08:06:11;5.10;99.70
336;DHT22;156;48.738;9.228;2023-02-04T08:08:44;5.50;98.80
336;DHT22;156;48.738;9.228;2023-02-04T08:11:15;5.30;96.10
336;DHT22;156;48.738;9.228;2023-02-04T08:13:47;5.70;95.30
336;DHT22;156;48.738;9.228;2023-02-04T08:16:19;3.90;92.30
336;DHT22;156;48.738;9.228;2023-02-04T08:18:51;6.00;74.90
336;DHT22;156;48.738;9.228;2023-02-04T08:21:33;6.30;74.50
336;DHT22;156;48.738;9.228;2023-02-04T08:24:04;5.60;73.10
336;DHT22;156;48.738;9.228;2023-02-04T08:26:39;5.10;70.90
336;DHT22;156;48.738;9.228;2023-02-04T08:29:09;5.70;57.70
336;DHT22;156;48.738;9.228;2023-02-04T08:31:48;5.50;53.00
336;DHT22;156;48.738;9.228;2023-02-04T08:34:42;4.90;49.60
336;DHT22;156;48.738;9.228;2023-02-04T08:37:22;5.90;45.40
336;DHT22;156;48.738;9.228;2023-02-04T08:39:56;5.40;41.70
336;DHT22;156;48.738;9.228;2023-02-04T08:42:28;7.30;46.20
336;DHT22;156;48.738;9.228;2023-02-04T08:45:12;5.20;34.00
336;DHT22;156;48.738;9.228;2023-02-04T08:47:39;5.40;27.40
336;DHT22;156;48.738;9.228;2023-02-04T08:50:09;6.60;20.70
336;DHT22;156;48.738;9.228;2023-02-04T08:52:45;5.00;16.10
336;DHT22;156;48.738;9.228;2023-02-04T08:55:15;5.00;17.10
336;DHT22;156;48.738;9.228;2023-02-04T08:58:05;5.00;12.80
336;DHT22;156;48.738;9.228;2023-02-04T09:00:32;5.10;15.50
336;DHT22;156;48.738;9.228;2023-02-04T09:03:15;5.50;13.60
336;DHT22;156;48.738;9.228;2023-02-04T09:05:53;5.70;7.60
336;DHT22;156;48.738;9.228;2023-02-04T09:08:30;5.10;8.90
336;DHT22;156;48.738;9.228;2023-02-04T09:11:14;5.50;11.00
336;DHT22;156;48.738;9.228;2023-02-04T09:13:55;5.10;10.20
336;DHT22;156;48.738;9.228;2023-02-04T09:16:30;5.40;7.30
336;DHT22;156;48.738;9.228;2023-02-04T09:19:01;6.20;10.00
336;DHT22;156;48.738;9.228;2023-02-04T09:21:45;6.50;8.90
336;DHT22;156;48.738;9.228;2023-02-04T09:27:32;5.00;1.70
336;DHT22;156;48.738;9.228;2023-02-04T09:30:06;5.00;1.00
336;DHT22;156;48.738;9.228;2023-02-04T09:36:05;5.00;1.00
336;DHT22;156;48.738;9.228;2023-02-04T09:39:28;5.60;1.00
336;DHT22;156;48.738;9.228;2023-02-04T09:42:49;5.30;4.50
336;DHT22;156;48.738;9.228;2023-02-04T09:45:46;5.30;4.30
336;DHT22;156;48.738;9.228;2023-02-04T09:48:30;7.60;8.50
336;DHT22;156;48.738;9.228;2023-02-04T09:51:26;4.70;1.00
336;DHT22;156;48.738;9.228;2023-02-04T09:54:30;5.90;1.00
336;DHT22;156;48.738;9.228;2023-02-04T09:57:54;6.60;1.00
336;DHT22;156;48.738;9.228;2023-02-04T10:01:12;5.40;1.00
336;DHT22;156;48.738;9.228;2023-02-04T10:04:03;5.90;1.00
336;DHT22;156;48.738;9.228;2023-02-04T10:07:14;6.10;1.00
336;DHT22;156;48.738;9.228;2023-02-04T10:10:15;6.70;1.00
336;DHT22;156;48.738;9.228;2023-02-04T10:20:16;6.70;1.00
336;DHT22;156;48.738;9.228;2023-02-04T10:23:16;6.60;1.00
336;DHT22;156;48.738;9.228;2023-02-04T10:29:16;7.30;1.00
336;DHT22;156;48.738;9.228;2023-02-04T10:36:51;7.60;1.00
336;DHT22;156;48.738;9.228;2023-02-04T10:40:36;6.70;1.00
336;DHT22;156;48.738;9.228;2023-02-04T10:43:21;6.40;1.00
336;DHT22;156;48.738;9.228;2023-02-04T10:50:13;6.20;1.00
336;DHT22;156;48.738;9.228;2023-02-04T10:56:45;5.80;1.00
336;DHT22;156;48.738;9.228;2023-02-04T11:03:48;8.50;1.00
336;DHT22;156;48.738;9.228;2023-02-04T11:06:27;6.30;1.00
336;DHT22;156;48.738;9.228;2023-02-04T11:09:25;6.20;1.00
336;DHT22;156;48.738;9.228;2023-02-04T11:19:40;7.10;1.00
336;DHT22;156;48.738;9.228;2023-02-04T11:23:14;6.70;1.00
336;DHT22;156;48.738;9.228;2023-02-04T11:37:05;5.90;1.00
336;DHT22;156;48.738;9.228;2023-02-04T11:39:36;7.20;1.00
336;DHT22;156;48.738;9.228;2023-02-04T11:42:04;7.40;1.00
336;DHT22;156;48.738;9.228;2023-02-04T11:44:32;7.40;1.00
336;DHT22;156;48.738;9.228;2023-02-04T11:46:59;7.60;1.00
336;DHT22;156;48.738;9.228;2023-02-04T11:49:27;7.30;1.00
336;DHT22;156;48.738;9.228;2023-02-04T11:52:05;7.10;1.00
336;DHT22;156;48.738;9.228;2023-02-04T11:54:33;6.70;1.00
336;DHT22;156;48.738;9.228;2023-02-04T11:57:00;6.80;1.00
336;DHT22;156;48.738;9.228;2023-02-04T11:59:27;6.80;1.00
336;DHT22;156;48.738;9.228;2023-02-04T12:02:03;6.80;1.00
336;DHT22;156;48.738;9.228;2023-02-04T12:04:30;6.70;1.00
336;DHT22;156;48.738;9.228;2023-02-04T12:06:59;6.70;1.00
336;DHT22;156;48.738;9.228;2023-02-04T12:09:28;6.70;1.00
336;DHT22;156;48.738;9.228;2023-02-04T12:11:57;6.60;1.00
336;DHT22;156;48.738;9.228;2023-02-04T12:14:30;6.70;1.00
336;DHT22;156;48.738;9.228;2023-02-04T12:16:57;6.70;1.00
336;DHT22;156;48.738;9.228;2023-02-04T12:19:24;6.90;1.00
336;DHT22;156;48.738;9.228;2023-02-04T12:21:52;7.10;1.00
336;DHT22;156;48.738;9.228;2023-02-04T12:24:19;7.40;1.00
336;DHT22;156;48.738;9.228;2023-02-04T12:26:47;7.50;1.00
336;DHT22;156;48.738;9.228;2023-02-04T12:29:14;7.60;1.00
336;DHT22;156;48.738;9.228;2023-02-04T12:31:41;7.60;1.00
336;DHT22;156;48.738;9.228;2023-02-04T12:34:08;7.50;1.00
336;DHT22;156;48.738;9.228;2023-02-04T12:36:35;7.50;1.00
336;DHT22;156;48.738;9.228;2023-02-04T12:39:02;7.50;1.00
336;DHT22;156;48.738;9.228;2023-02-04T12:41:29;7.50;1.00
336;DHT22;156;48.738;9.228;2023-02-04T12:43:57;7.50;1.00
336;DHT22;156;48.738;9.228;2023-02-04T12:46:25;7.50;1.00
336;DHT22;156;48.738;9.228;2023-02-04T12:48:52;7.50;1.00
336;DHT22;156;48.738;9.228;2023-02-04T12:51:19;7.30;1.00
336;DHT22;156;48.738;9.228;2023-02-04T12:53:46;7.30;1.00
336;DHT22;156;48.738;9.228;2023-02-04T12:56:14;7.30;1.00
336;DHT22;156;48.738;9.228;2023-02-04T12:58:41;7.30;1.00
336;DHT22;156;48.738;9.228;2023-02-04T13:01:09;7.10;1.00
336;DHT22;156;48.738;9.228;2023-02-04T13:03:36;6.90;1.00
336;DHT22;156;48.738;9.228;2023-02-04T13:06:03;6.80;1.00
336;DHT22;156;48.738;9.228;2023-02-04T13:08:31;6.90;1.00
336;DHT22;156;48.738;9.228;2023-02-04T13:10:58;7.00;1.00
336;DHT22;156;48.738;9.228;2023-02-04T13:13:25;7.00;1.00
336;DHT22;156;48.738;9.228;2023-02-04T13:15:51;7.20;1.00
336;DHT22;156;48.738;9.228;2023-02-04T13:18:20;7.20;1.00
336;DHT22;156;48.738;9.228;2023-02-04T13:20:47;7.20;1.00
336;DHT22;156;48.738;9.228;2023-02-04T13:23:14;7.50;1.00
336;DHT22;156;48.738;9.228;2023-02-04T13:25:40;7.60;1.00
336;DHT22;156;48.738;9.228;2023-02-04T13:28:08;7.30;1.00
336;DHT22;156;48.738;9.228;2023-02-04T13:30:35;7.20;1.00
336;DHT22;156;48.738;9.228;2023-02-04T13:33:02;7.10;1.00
336;DHT22;156;48.738;9.228;2023-02-04T13:35:30;7.00;1.00
336;DHT22;156;48.738;9.228;2023-02-04T13:37:57;6.70;1.00
336;DHT22;156;48.738;9.228;2023-02-04T13:40:24;6.60;1.00
336;DHT22;156;48.738;9.228;2023-02-04T13:42:51;6.60;1.00
336;DHT22;156;48.738;9.228;2023-02-04T13:45:18;6.50;1.00
336;DHT22;156;48.738;9.228;2023-02-04T13:47:45;6.50;1.00
336;DHT22;156;48.738;9.228;2023-02-04T13:50:13;6.50;1.00
336;DHT22;156;48.738;9.228;2023-02-04T13:52:41;6.50;1.00
336;DHT22;156;48.738;9.228;2023-02-04T13:55:08;6.60;1.00
336;DHT22;156;48.738;9.228;2023-02-04T13:57:35;6.60;1.00
336;DHT22;156;48.738;9.228;2023-02-04T14:00:03;6.60;1.00
336;DHT22;156;48.738;9.228;2023-02-04T14:02:31;6.60;1.00
336;DHT22;156;48.738;9.228;2023-02-04T14:04:58;6.50;1.00
336;DHT22;156;48.738;9.228;2023-02-04T14:07:26;6.40;1.00
336;DHT22;156;48.738;9.228;2023-02-04T14:09:56;6.40;1.00
336;DHT22;156;48.738;9.228;2023-02-04T14:12:23;6.50;1.00
336;DHT22;156;48.738;9.228;2023-02-04T14:14:50;6.50;1.00
336;DHT22;156;48.738;9.228;2023-02-04T14:17:16;6.70;1.00
336;DHT22;156;48.738;9.228;2023-02-04T14:19:43;6.90;1.00
336;DHT22;156;48.738;9.228;2023-02-04T14:22:10;7.00;1.00
336;DHT22;156;48.738;9.228;2023-02-04T14:24:38;7.30;1.00
336;DHT22;156;48.738;9.228;2023-02-04T14:27:08;7.60;1.00
336;DHT22;156;48.738;9.228;2023-02-04T14:29:35;8.10;1.00
336;DHT22;156;48.738;9.228;2023-02-04T14:32:03;8.20;1.00
336;DHT22;156;48.738;9.228;2023-02-04T14:34:30;8.00;1.00
336;DHT22;156;48.738;9.228;2023-02-04T14:36:57;8.00;1.00
336;DHT22;156;48.738;9.228;2023-02-04T14:39:24;7.80;1.00
336;DHT22;156;48.738;9.228;2023-02-04T14:41:51;7.70;1.00
336;DHT22;156;48.738;9.228;2023-02-04T14:44:19;7.60;1.00
336;DHT22;156;48.738;9.228;2023-02-04T14:46:47;7.40;1.00
336;DHT22;156;48.738;9.228;2023-02-04T14:49:14;7.30;1.00
336;DHT22;156;48.738;9.228;2023-02-04T14:51:44;7.30;1.00
336;DHT22;156;48.738;9.228;2023-02-04T14:54:11;7.20;1.00
336;DHT22;156;48.738;9.228;2023-02-04T14:56:38;7.10;1.00
336;DHT22;156;48.738;9.228;2023-02-04T14:59:05;7.10;1.00
336;DHT22;156;48.738;9.228;2023-02-04T15:01:33;7.00;1.00
336;DHT22;156;48.738;9.228;2023-02-04T15:04:00;7.00;1.00
336;DHT22;156;48.738;9.228;2023-02-04T15:06:27;7.20;1.00
336;DHT22;156;48.738;9.228;2023-02-04T15:08:54;7.30;1.00
336;DHT22;156;48.738;9.228;2023-02-04T15:11:21;7.50;1.00
336;DHT22;156;48.738;9.228;2023-02-04T15:13:48;7.60;1.00
336;DHT22;156;48.738;9.228;2023-02-04T15:16:15;7.60;1.00
336;DHT22;156;48.738;9.228;2023-02-04T15:18:43;7.70;1.00
336;DHT22;156;48.738;9.228;2023-02-04T15:21:10;7.70;1.00
336;DHT22;156;48.738;9.228;2023-02-04T15:23:38;7.70;1.00
336;DHT22;156;48.738;9.228;2023-02-04T15:26:05;7.60;1.00
336;DHT22;156;48.738;9.228;2023-02-04T15:28:32;7.50;1.00
336;DHT22;156;48.738;9.228;2023-02-04T15:30:59;7.40;1.00
336;DHT22;156;48.738;9.228;2023-02-04T15:33:26;7.40;1.00
336;DHT22;156;48.738;9.228;2023-02-04T15:35:54;7.10;1.00
336;DHT22;156;48.738;9.228;2023-02-04T15:38:21;7.10;1.00
336;DHT22;156;48.738;9.228;2023-02-04T15:40:48;6.90;1.00
336;DHT22;156;48.738;9.228;2023-02-04T15:43:15;6.80;1.00
336;DHT22;156;48.738;9.228;2023-02-04T15:45:45;6.70;1.00
336;DHT22;156;48.738;9.228;2023-02-04T15:48:12;6.60;1.00
336;DHT22;156;48.738;9.228;2023-02-04T15:50:40;6.50;1.00
336;DHT22;156;48.738;9.228;2023-02-04T15:53:08;6.50;1.00
336;DHT22;156;48.738;9.228;2023-02-04T15:55:35;6.50;1.00
336;DHT22;156;48.738;9.228;2023-02-04T15:58:02;6.50;1.00
336;DHT22;156;48.738;9.228;2023-02-04T16:00:29;6.50;1.00
336;DHT22;156;48.738;9.228;2023-02-04T16:02:56;6.50;1.00
336;DHT22;156;48.738;9.228;2023-02-04T16:05:23;6.50;1.00
336;DHT22;156;48.738;9.228;2023-02-04T16:07:50;6.50;1.00
336;DHT22;156;48.738;9.228;2023-02-04T16:10:19;6.50;1.00
336;DHT22;156;48.738;9.228;2023-02-04T16:12:45;6.50;1.00
336;DHT22;156;48.738;9.228;2023-02-04T16:15:13;6.50;1.00
336;DHT22;156;48.738;9.228;2023-02-04T16:17:40;6.50;1.00
336;DHT22;156;48.738;9.228;2023-02-04T16:20:08;6.50;1.00
336;DHT22;156;48.738;9.228;2023-02-04T16:22:35;6.50;1.00
336;DHT22;156;48.738;9.228;2023-02-04T16:25:02;6.40;1.00
336;DHT22;156;48.738;9.228;2023-02-04T16:27:30;6.30;1.00
336;DHT22;156;48.738;9.228;2023-02-04T16:29:58;6.30;1.00
336;DHT22;156;48.738;9.228;2023-02-04T16:32:25;6.30;1.00
336;DHT22;156;48.738;9.228;2023-02-04T16:34:52;6.10;1.00
336;DHT22;156;48.738;9.228;2023-02-04T16:37:21;6.10;1.00
336;DHT22;156;48.738;9.228;2023-02-04T16:39:48;6.00;1.00
336;DHT22;156;48.738;9.228;2023-02-04T16:42:16;6.00;1.00
336;DHT22;156;48.738;9.228;2023-02-04T16:44:44;6.00;1.00
336;DHT22;156;48.738;9.228;2023-02-04T16:47:11;5.90;1.00
336;DHT22;156;48.738;9.228;2023-02-04T16:49:38;5.80;1.00
336;DHT22;156;48.738;9.228;2023-02-04T16:52:05;5.80;1.00
336;DHT22;156;48.738;9.228;2023-02-04T16:54:32;5.70;1.00
336;DHT22;156;48.738;9.228;2023-02-04T16:56:59;5.70;1.00
336;DHT22;156;48.738;9.228;2023-02-04T16:59:28;5.60;1.00
336;DHT22;156;48.738;9.228;2023-02-04T17:01:57;5.50;1.00
336;DHT22;156;48.738;9.228;2023-02-04T17:04:25;5.50;1.00
336;DHT22;156;48.738;9.228;2023-02-04T17:06:52;5.50;1.00
336;DHT22;156;48.738;9.228;2023-02-04T17:09:19;5.40;1.00
336;DHT22;156;48.738;9.228;2023-02-04T17:11:46;5.30;1.00
336;DHT22;156;48.738;9.228;2023-02-04T17:14:13;5.30;1.00
336;DHT22;156;48.738;9.228;2023-02-04T17:16:40;5.40;1.00
336;DHT22;156;48.738;9.228;2023-02-04T17:19:09;5.40;1.00
336;DHT22;156;48.738;9.228;2023-02-04T17:21:36;5.40;1.00
336;DHT22;156;48.738;9.228;2023-02-04T17:24:04;5.30;1.00
336;DHT22;156;48.738;9.228;2023-02-04T17:26:32;5.30;1.00
336;DHT22;156;48.738;9.228;2023-02-04T17:29:02;5.30;1.00
336;DHT22;156;48.738;9.228;2023-02-04T17:31:29;5.20;1.00
336;DHT22;156;48.738;9.228;2023-02-04T17:33:56;5.20;1.00
336;DHT22;156;48.738;9.228;2023-02-04T17:36:24;5.20;1.00
336;DHT22;156;48.738;9.228;2023-02-04T17:38:51;5.20;1.00
336;DHT22;156;48.738;9.228;2023-02-04T17:41:22;4.80;1.00
336;DHT22;156;48.738;9.228;2023-02-04T17:43:49;5.20;1.00
336;DHT22;156;48.738;9.228;2023-02-04T17:46:17;5.20;1.00
336;DHT22;156;48.738;9.228;2023-02-04T17:48:46;6.30;1.00
336;DHT22;156;48.738;9.228;2023-02-04T17:51:15;5.00;1.00
336;DHT22;156;48.738;9.228;2023-02-04T17:53:46;5.20;1.00
336;DHT22;156;48.738;9.228;2023-02-04T17:56:14;4.70;1.00
336;DHT22;156;48.738;9.228;2023-02-04T17:58:42;5.10;1.00
336;DHT22;156;48.738;9.228;2023-02-04T18:01:12;5.30;1.00
336;DHT22;156;48.738;9.228;2023-02-04T18:03:39;4.90;1.00
336;DHT22;156;48.738;9.228;2023-02-04T18:06:17;4.80;1.00
336;DHT22;156;48.738;9.228;2023-02-04T18:08:47;4.80;1.00
336;DHT22;156;48.738;9.228;2023-02-04T18:11:18;4.70;1.00
336;DHT22;156;48.738;9.228;2023-02-04T18:13:45;4.70;1.00
336;DHT22;156;48.738;9.228;2023-02-04T18:16:25;4.60;1.00
336;DHT22;156;48.738;9.228;2023-02-04T18:18:54;4.60;1.00